Terminal Aerodrome Forecast
Issued by NWS

Home | Current Version | Previous Version | Graphics & Text | Print | Product List | Glossary On
Versions: 1 2 3 4 5 6 7 8 9 10 11 12 13 14 15 16 17 18 19 20 21 22 23 24 25 26 27 28 29 30 31 32 33 34 35 36 37 38 39
000
FTUS43 KGRB 200900 AAA
TAFRHI
TAF AMD
KRHI 200950Z 2010/2106 23008KT P6SM OVC008
     FM201400 26009G15KT P6SM BKN015
     FM201700 27011G18KT P6SM SCT025 SCT100
     FM210100 VRB03KT P6SM SCT020 OVC035
      TEMPO 2102/2106 3SM SHRA BR OVC012=

USA.gov is the U.S. government's official web portal to all federal, state and local government web resources and services.